sensor_id;sensor_type;location;lat;lon;timestamp;temperature;humidity
17728;DHT22;8984;49.268;12.302;2022-07-31T00:02:15;19.20;99.90
17728;DHT22;8984;49.268;12.302;2022-07-31T00:04:42;19.10;99.90
17728;DHT22;8984;49.268;12.302;2022-07-31T00:07:09;19.10;99.90
17728;DHT22;8984;49.268;12.302;2022-07-31T00:09:36;19.10;99.90
17728;DHT22;8984;49.268;12.302;2022-07-31T00:12:07;19.10;99.90
17728;DHT22;8984;49.268;12.302;2022-07-31T00:14:34;19.10;99.90
17728;DHT22;8984;49.268;12.302;2022-07-31T00:17:01;19.00;99.90
17728;DHT22;8984;49.268;12.302;2022-07-31T00:19:28;19.00;99.90
17728;DHT22;8984;49.268;12.302;2022-07-31T00:21:55;19.00;99.90
17728;DHT22;8984;49.268;12.302;2022-07-31T00:24:23;18.90;99.90
17728;DHT22;8984;49.268;12.302;2022-07-31T00:26:49;18.90;99.90
17728;DHT22;8984;49.268;12.302;2022-07-31T00:29:18;18.80;99.90
17728;DHT22;8984;49.268;12.302;2022-07-31T00:31:45;18.80;99.90
17728;DHT22;8984;49.268;12.302;2022-07-31T00:34:11;18.70;99.90
17728;DHT22;8984;49.268;12.302;2022-07-31T00:36:38;18.70;99.90
17728;DHT22;8984;49.268;12.302;2022-07-31T00:39:05;18.60;99.90
17728;DHT22;8984;49.268;12.302;2022-07-31T00:41:39;18.60;99.90
17728;DHT22;8984;49.268;12.302;2022-07-31T00:44:06;18.60;99.90
17728;DHT22;8984;49.268;12.302;2022-07-31T00:46:35;18.60;99.90
17728;DHT22;8984;49.268;12.302;2022-07-31T00:49:02;18.50;99.90
17728;DHT22;8984;49.268;12.302;2022-07-31T00:51:29;18.40;99.90
17728;DHT22;8984;49.268;12.302;2022-07-31T00:53:56;18.30;99.90
17728;DHT22;8984;49.268;12.302;2022-07-31T00:56:23;18.20;99.90
17728;DHT22;8984;49.268;12.302;2022-07-31T00:58:50;18.20;99.90
17728;DHT22;8984;49.268;12.302;2022-07-31T01:01:19;18.20;99.90
17728;DHT22;8984;49.268;12.302;2022-07-31T01:03:49;18.20;99.90
17728;DHT22;8984;49.268;12.302;2022-07-31T01:06:18;18.20;99.90
17728;DHT22;8984;49.268;12.302;2022-07-31T01:08:44;18.20;99.90
17728;DHT22;8984;49.268;12.302;2022-07-31T01:11:16;18.10;99.90
17728;DHT22;8984;49.268;12.302;2022-07-31T01:13:48;18.10;99.90
17728;DHT22;8984;49.268;12.302;2022-07-31T01:16:16;18.10;99.90
17728;DHT22;8984;49.268;12.302;2022-07-31T01:18:44;18.00;99.90
17728;DHT22;8984;49.268;12.302;2022-07-31T01:21:18;18.00;99.90
17728;DHT22;8984;49.268;12.302;2022-07-31T01:24:07;18.00;99.90
17728;DHT22;8984;49.268;12.302;2022-07-31T01:26:42;18.00;99.90
17728;DHT22;8984;49.268;12.302;2022-07-31T01:29:18;18.00;99.90
17728;DHT22;8984;49.268;12.302;2022-07-31T01:31:52;18.00;99.90
17728;DHT22;8984;49.268;12.302;2022-07-31T01:34:24;18.00;99.90
17728;DHT22;8984;49.268;12.302;2022-07-31T01:36:57;17.90;99.90
17728;DHT22;8984;49.268;12.302;2022-07-31T01:39:28;17.90;99.90
17728;DHT22;8984;49.268;12.302;2022-07-31T01:41:58;17.80;99.90
17728;DHT22;8984;49.268;12.302;2022-07-31T01:44:29;17.80;99.90
17728;DHT22;8984;49.268;12.302;2022-07-31T01:46:57;17.80;99.90
17728;DHT22;8984;49.268;12.302;2022-07-31T01:49:25;17.70;99.90
17728;DHT22;8984;49.268;12.302;2022-07-31T01:51:54;17.70;99.90
17728;DHT22;8984;49.268;12.302;2022-07-31T01:54:21;17.70;99.90
17728;DHT22;8984;49.268;12.302;2022-07-31T01:56:49;17.70;99.90
17728;DHT22;8984;49.268;12.302;2022-07-31T01:59:18;17.60;99.90
17728;DHT22;8984;49.268;12.302;2022-07-31T02:01:48;17.60;99.90
17728;DHT22;8984;49.268;12.302;2022-07-31T02:04:17;17.60;99.90
17728;DHT22;8984;49.268;12.302;2022-07-31T02:06:46;17.60;99.90
17728;DHT22;8984;49.268;12.302;2022-07-31T02:09:14;17.50;99.90
17728;DHT22;8984;49.268;12.302;2022-07-31T02:11:43;17.40;99.90
17728;DHT22;8984;49.268;12.302;2022-07-31T02:14:11;17.40;99.90
17728;DHT22;8984;49.268;12.302;2022-07-31T02:16:39;17.50;99.90
17728;DHT22;8984;49.268;12.302;2022-07-31T02:19:08;17.40;99.90
17728;DHT22;8984;49.268;12.302;2022-07-31T02:21:39;17.30;99.90
17728;DHT22;8984;49.268;12.302;2022-07-31T02:24:06;17.20;99.90
17728;DHT22;8984;49.268;12.302;2022-07-31T02:26:34;17.20;99.90
17728;DHT22;8984;49.268;12.302;2022-07-31T02:29:03;17.20;99.90
17728;DHT22;8984;49.268;12.302;2022-07-31T02:31:30;17.20;99.90
17728;DHT22;8984;49.268;12.302;2022-07-31T02:33:58;17.20;99.90
17728;DHT22;8984;49.268;12.302;2022-07-31T02:36:28;17.10;99.90
17728;DHT22;8984;49.268;12.302;2022-07-31T02:38:58;17.10;99.90
17728;DHT22;8984;49.268;12.302;2022-07-31T02:41:26;17.10;99.90
17728;DHT22;8984;49.268;12.302;2022-07-31T02:43:52;17.10;99.90
17728;DHT22;8984;49.268;12.302;2022-07-31T02:46:20;17.10;99.90
17728;DHT22;8984;49.268;12.302;2022-07-31T02:48:48;17.00;99.90
17728;DHT22;8984;49.268;12.302;2022-07-31T02:51:15;17.00;99.90
17728;DHT22;8984;49.268;12.302;2022-07-31T02:53:45;17.00;99.90
17728;DHT22;8984;49.268;12.302;2022-07-31T02:56:12;16.90;99.90
17728;DHT22;8984;49.268;12.302;2022-07-31T02:58:40;16.90;99.90
17728;DHT22;8984;49.268;12.302;2022-07-31T03:01:07;16.90;99.90
17728;DHT22;8984;49.268;12.302;2022-07-31T03:03:35;16.90;99.90
17728;DHT22;8984;49.268;12.302;2022-07-31T03:06:02;16.80;99.90
17728;DHT22;8984;49.268;12.302;2022-07-31T03:08:29;16.80;99.90
17728;DHT22;8984;49.268;12.302;2022-07-31T03:10:57;16.80;99.90
17728;DHT22;8984;49.268;12.302;2022-07-31T03:13:26;16.70;99.90
17728;DHT22;8984;49.268;12.302;2022-07-31T03:15:54;16.70;99.90
17728;DHT22;8984;49.268;12.302;2022-07-31T03:18:21;16.60;99.90
17728;DHT22;8984;49.268;12.302;2022-07-31T03:20:49;16.60;99.90
17728;DHT22;8984;49.268;12.302;2022-07-31T03:23:20;16.60;99.90
17728;DHT22;8984;49.268;12.302;2022-07-31T03:25:48;16.60;99.90
17728;DHT22;8984;49.268;12.302;2022-07-31T03:28:17;16.60;99.90
17728;DHT22;8984;49.268;12.302;2022-07-31T03:30:44;16.60;99.90
17728;DHT22;8984;49.268;12.302;2022-07-31T03:33:11;16.60;99.90
17728;DHT22;8984;49.268;12.302;2022-07-31T03:35:38;16.50;99.90
17728;DHT22;8984;49.268;12.302;2022-07-31T03:38:05;16.50;99.90
17728;DHT22;8984;49.268;12.302;2022-07-31T03:40:32;16.50;99.90
17728;DHT22;8984;49.268;12.302;2022-07-31T03:43:00;16.50;99.90
17728;DHT22;8984;49.268;12.302;2022-07-31T03:45:30;16.40;99.90
17728;DHT22;8984;49.268;12.302;2022-07-31T03:47:58;16.50;99.90
17728;DHT22;8984;49.268;12.302;2022-07-31T03:50:25;16.60;99.90
17728;DHT22;8984;49.268;12.302;2022-07-31T03:52:53;16.50;99.90
17728;DHT22;8984;49.268;12.302;2022-07-31T03:55:20;16.50;99.90
17728;DHT22;8984;49.268;12.302;2022-07-31T03:57:47;16.60;99.90
17728;DHT22;8984;49.268;12.302;2022-07-31T04:00:15;16.70;99.90
17728;DHT22;8984;49.268;12.302;2022-07-31T04:02:44;16.60;99.90
17728;DHT22;8984;49.268;12.302;2022-07-31T04:05:11;16.80;99.90
17728;DHT22;8984;49.268;12.302;2022-07-31T04:07:38;16.70;99.90
17728;DHT22;8984;49.268;12.302;2022-07-31T04:10:06;16.70;99.90
17728;DHT22;8984;49.268;12.302;2022-07-31T04:12:33;16.70;99.90
17728;DHT22;8984;49.268;12.302;2022-07-31T04:15:00;16.70;99.90
17728;DHT22;8984;49.268;12.302;2022-07-31T04:17:27;16.80;99.90
17728;DHT22;8984;49.268;12.302;2022-07-31T04:19:55;16.80;99.90
17728;DHT22;8984;49.268;12.302;2022-07-31T04:22:22;16.70;99.90
17728;DHT22;8984;49.268;12.302;2022-07-31T04:24:49;16.70;99.90
17728;DHT22;8984;49.268;12.302;2022-07-31T04:27:17;16.70;99.90
17728;DHT22;8984;49.268;12.302;2022-07-31T04:29:44;16.60;99.90
17728;DHT22;8984;49.268;12.302;2022-07-31T04:32:11;16.70;99.90
17728;DHT22;8984;49.268;12.302;2022-07-31T04:34:38;16.70;99.90
17728;DHT22;8984;49.268;12.302;2022-07-31T04:37:07;16.70;99.90
17728;DHT22;8984;49.268;12.302;2022-07-31T04:39:34;16.80;99.90
17728;DHT22;8984;49.268;12.302;2022-07-31T04:42:01;16.90;99.90
17728;DHT22;8984;49.268;12.302;2022-07-31T04:44:28;16.90;99.90
17728;DHT22;8984;49.268;12.302;2022-07-31T04:46:58;16.90;99.90
17728;DHT22;8984;49.268;12.302;2022-07-31T04:49:25;17.00;99.90
17728;DHT22;8984;49.268;12.302;2022-07-31T04:51:52;16.80;99.90
17728;DHT22;8984;49.268;12.302;2022-07-31T04:54:20;16.90;99.90
17728;DHT22;8984;49.268;12.302;2022-07-31T04:56:47;17.10;99.90
17728;DHT22;8984;49.268;12.302;2022-07-31T04:59:16;17.10;99.90
17728;DHT22;8984;49.268;12.302;2022-07-31T05:01:45;17.10;99.90
17728;DHT22;8984;49.268;12.302;2022-07-31T05:04:12;17.20;99.90
17728;DHT22;8984;49.268;12.302;2022-07-31T05:06:40;17.30;99.90
17728;DHT22;8984;49.268;12.302;2022-07-31T05:09:10;17.30;99.90
17728;DHT22;8984;49.268;12.302;2022-07-31T05:11:39;17.40;99.90
17728;DHT22;8984;49.268;12.302;2022-07-31T05:14:08;17.40;99.90
17728;DHT22;8984;49.268;12.302;2022-07-31T05:16:36;17.40;99.90
17728;DHT22;8984;49.268;12.302;2022-07-31T05:19:03;17.40;99.90
17728;DHT22;8984;49.268;12.302;2022-07-31T05:21:30;17.50;99.90
17728;DHT22;8984;49.268;12.302;2022-07-31T05:23:58;17.50;99.90
17728;DHT22;8984;49.268;12.302;2022-07-31T05:26:26;17.50;99.90
17728;DHT22;8984;49.268;12.302;2022-07-31T05:28:56;17.60;99.90
17728;DHT22;8984;49.268;12.302;2022-07-31T05:31:24;17.60;99.90
17728;DHT22;8984;49.268;12.302;2022-07-31T05:33:52;17.70;99.90
17728;DHT22;8984;49.268;12.302;2022-07-31T05:36:19;17.90;99.90
17728;DHT22;8984;49.268;12.302;2022-07-31T05:38:46;18.00;99.90
17728;DHT22;8984;49.268;12.302;2022-07-31T05:41:13;18.00;99.90
17728;DHT22;8984;49.268;12.302;2022-07-31T05:43:40;18.00;99.90
17728;DHT22;8984;49.268;12.302;2022-07-31T05:46:09;18.10;99.90
17728;DHT22;8984;49.268;12.302;2022-07-31T05:48:38;18.20;99.90
17728;DHT22;8984;49.268;12.302;2022-07-31T05:51:07;18.20;99.90
17728;DHT22;8984;49.268;12.302;2022-07-31T05:53:34;18.40;99.90
17728;DHT22;8984;49.268;12.302;2022-07-31T05:56:02;18.60;99.90
17728;DHT22;8984;49.268;12.302;2022-07-31T05:58:29;18.70;99.90
17728;DHT22;8984;49.268;12.302;2022-07-31T06:00:56;18.80;99.90
17728;DHT22;8984;49.268;12.302;2022-07-31T06:03:24;18.90;99.90
17728;DHT22;8984;49.268;12.302;2022-07-31T06:05:53;19.20;99.90
17728;DHT22;8984;49.268;12.302;2022-07-31T06:08:20;19.40;99.90
17728;DHT22;8984;49.268;12.302;2022-07-31T06:10:47;19.70;99.90
17728;DHT22;8984;49.268;12.302;2022-07-31T06:13:14;20.00;99.90
17728;DHT22;8984;49.268;12.302;2022-07-31T06:15:41;20.20;99.90
17728;DHT22;8984;49.268;12.302;2022-07-31T06:18:08;20.30;99.90
17728;DHT22;8984;49.268;12.302;2022-07-31T06:20:36;20.30;99.90
17728;DHT22;8984;49.268;12.302;2022-07-31T06:23:04;20.30;99.90
17728;DHT22;8984;49.268;12.302;2022-07-31T06:25:30;20.40;99.90
17728;DHT22;8984;49.268;12.302;2022-07-31T06:27:57;20.40;99.90
17728;DHT22;8984;49.268;12.302;2022-07-31T06:30:24;20.40;99.90
17728;DHT22;8984;49.268;12.302;2022-07-31T06:32:51;20.40;99.90
17728;DHT22;8984;49.268;12.302;2022-07-31T06:35:18;20.40;99.90
17728;DHT22;8984;49.268;12.302;2022-07-31T06:37:46;20.50;99.90
17728;DHT22;8984;49.268;12.302;2022-07-31T06:40:13;20.50;99.90
17728;DHT22;8984;49.268;12.302;2022-07-31T06:42:40;20.60;99.90
17728;DHT22;8984;49.268;12.302;2022-07-31T06:45:08;20.60;99.90
17728;DHT22;8984;49.268;12.302;2022-07-31T06:47:35;20.60;99.90
17728;DHT22;8984;49.268;12.302;2022-07-31T06:50:02;20.70;99.90
17728;DHT22;8984;49.268;12.302;2022-07-31T06:52:30;20.60;99.90
17728;DHT22;8984;49.268;12.302;2022-07-31T06:54:58;20.70;99.90
17728;DHT22;8984;49.268;12.302;2022-07-31T06:57:25;20.80;99.90
17728;DHT22;8984;49.268;12.302;2022-07-31T06:59:52;20.90;99.90
17728;DHT22;8984;49.268;12.302;2022-07-31T07:02:19;20.90;99.90
17728;DHT22;8984;49.268;12.302;2022-07-31T07:04:46;21.00;99.90
17728;DHT22;8984;49.268;12.302;2022-07-31T07:07:13;20.80;99.90
17728;DHT22;8984;49.268;12.302;2022-07-31T07:09:40;20.90;99.90
17728;DHT22;8984;49.268;12.302;2022-07-31T07:12:08;20.90;99.90
17728;DHT22;8984;49.268;12.302;2022-07-31T07:14:35;21.10;99.90
17728;DHT22;8984;49.268;12.302;2022-07-31T07:17:03;21.20;99.90
17728;DHT22;8984;49.268;12.302;2022-07-31T07:19:30;21.30;99.90
17728;DHT22;8984;49.268;12.302;2022-07-31T07:21:57;21.30;99.90
17728;DHT22;8984;49.268;12.302;2022-07-31T07:24:24;21.20;99.90
17728;DHT22;8984;49.268;12.302;2022-07-31T07:26:50;21.30;99.90
17728;DHT22;8984;49.268;12.302;2022-07-31T07:29:19;21.40;99.90
17728;DHT22;8984;49.268;12.302;2022-07-31T07:31:46;21.40;99.90
17728;DHT22;8984;49.268;12.302;2022-07-31T07:34:12;21.30;99.90
17728;DHT22;8984;49.268;12.302;2022-07-31T07:36:40;21.50;99.90
17728;DHT22;8984;49.268;12.302;2022-07-31T07:39:06;21.60;99.90
17728;DHT22;8984;49.268;12.302;2022-07-31T07:41:34;21.70;99.90
17728;DHT22;8984;49.268;12.302;2022-07-31T07:44:03;21.70;99.90
17728;DHT22;8984;49.268;12.302;2022-07-31T07:46:32;21.80;99.90
17728;DHT22;8984;49.268;12.302;2022-07-31T07:48:59;21.70;99.90
17728;DHT22;8984;49.268;12.302;2022-07-31T07:51:26;21.80;99.90
17728;DHT22;8984;49.268;12.302;2022-07-31T07:53:53;21.90;99.90
17728;DHT22;8984;49.268;12.302;2022-07-31T07:56:20;22.00;99.90
17728;DHT22;8984;49.268;12.302;2022-07-31T07:58:46;22.10;99.90
17728;DHT22;8984;49.268;12.302;2022-07-31T08:01:13;22.30;99.90
17728;DHT22;8984;49.268;12.302;2022-07-31T08:03:42;22.40;99.90
17728;DHT22;8984;49.268;12.302;2022-07-31T08:06:09;22.50;99.90
17728;DHT22;8984;49.268;12.302;2022-07-31T08:08:36;22.60;99.90
17728;DHT22;8984;49.268;12.302;2022-07-31T08:11:03;22.80;99.90
17728;DHT22;8984;49.268;12.302;2022-07-31T08:13:29;22.90;99.90
17728;DHT22;8984;49.268;12.302;2022-07-31T08:15:56;23.10;99.90
17728;DHT22;8984;49.268;12.302;2022-07-31T08:18:23;23.30;99.90
17728;DHT22;8984;49.268;12.302;2022-07-31T08:20:51;23.50;99.90
17728;DHT22;8984;49.268;12.302;2022-07-31T08:23:18;23.60;99.90
17728;DHT22;8984;49.268;12.302;2022-07-31T08:25:45;23.70;99.90
17728;DHT22;8984;49.268;12.302;2022-07-31T08:28:11;23.70;99.90
17728;DHT22;8984;49.268;12.302;2022-07-31T08:30:38;23.90;99.90
17728;DHT22;8984;49.268;12.302;2022-07-31T08:33:06;23.80;99.90
17728;DHT22;8984;49.268;12.302;2022-07-31T08:35:32;23.70;99.90
17728;DHT22;8984;49.268;12.302;2022-07-31T08:38:00;23.70;99.90
17728;DHT22;8984;49.268;12.302;2022-07-31T08:40:28;23.70;99.90
17728;DHT22;8984;49.268;12.302;2022-07-31T08:42:55;24.00;99.90
17728;DHT22;8984;49.268;12.302;2022-07-31T08:45:22;24.30;99.90
17728;DHT22;8984;49.268;12.302;2022-07-31T08:47:49;24.70;99.90
17728;DHT22;8984;49.268;12.302;2022-07-31T08:50:16;25.00;99.90
17728;DHT22;8984;49.268;12.302;2022-07-31T08:52:44;25.30;99.90
17728;DHT22;8984;49.268;12.302;2022-07-31T08:55:15;25.60;99.90
17728;DHT22;8984;49.268;12.302;2022-07-31T08:57:45;25.60;99.90
17728;DHT22;8984;49.268;12.302;2022-07-31T09:00:13;25.80;99.90
17728;DHT22;8984;49.268;12.302;2022-07-31T09:02:42;25.70;99.90
17728;DHT22;8984;49.268;12.302;2022-07-31T09:05:09;25.80;99.90
17728;DHT22;8984;49.268;12.302;2022-07-31T09:07:35;25.60;99.90
17728;DHT22;8984;49.268;12.302;2022-07-31T09:10:06;25.90;99.90
17728;DHT22;8984;49.268;12.302;2022-07-31T09:12:37;26.10;99.90
17728;DHT22;8984;49.268;12.302;2022-07-31T09:15:17;26.20;99.90
17728;DHT22;8984;49.268;12.302;2022-07-31T09:17:44;26.30;99.10
17728;DHT22;8984;49.268;12.302;2022-07-31T09:20:16;26.30;99.30
17728;DHT22;8984;49.268;12.302;2022-07-31T09:22:43;26.20;98.00
17728;DHT22;8984;49.268;12.302;2022-07-31T09:25:12;26.50;98.00
17728;DHT22;8984;49.268;12.302;2022-07-31T09:27:41;26.60;97.40
17728;DHT22;8984;49.268;12.302;2022-07-31T09:30:09;26.80;97.70
17728;DHT22;8984;49.268;12.302;2022-07-31T09:32:36;26.80;96.40
17728;DHT22;8984;49.268;12.302;2022-07-31T09:35:07;26.60;96.20
17728;DHT22;8984;49.268;12.302;2022-07-31T09:37:34;26.80;97.00
17728;DHT22;8984;49.268;12.302;2022-07-31T09:40:02;27.20;96.10
17728;DHT22;8984;49.268;12.302;2022-07-31T09:42:37;27.60;96.90
17728;DHT22;8984;49.268;12.302;2022-07-31T09:45:17;27.70;95.10
17728;DHT22;8984;49.268;12.302;2022-07-31T09:47:44;27.90;96.50
17728;DHT22;8984;49.268;12.302;2022-07-31T09:50:11;28.10;94.50
17728;DHT22;8984;49.268;12.302;2022-07-31T09:52:38;28.40;95.10
17728;DHT22;8984;49.268;12.302;2022-07-31T09:55:06;28.50;92.40
17728;DHT22;8984;49.268;12.302;2022-07-31T09:57:34;28.60;93.40
17728;DHT22;8984;49.268;12.302;2022-07-31T10:00:04;28.80;92.50
17728;DHT22;8984;49.268;12.302;2022-07-31T10:02:32;28.50;92.30
17728;DHT22;8984;49.268;12.302;2022-07-31T10:05:01;28.20;92.80
17728;DHT22;8984;49.268;12.302;2022-07-31T10:07:31;28.40;92.30
17728;DHT22;8984;49.268;12.302;2022-07-31T10:10:02;28.40;90.10
17728;DHT22;8984;49.268;12.302;2022-07-31T10:12:30;28.50;88.90
17728;DHT22;8984;49.268;12.302;2022-07-31T10:15:04;28.30;90.10
17728;DHT22;8984;49.268;12.302;2022-07-31T10:17:35;28.50;90.10
17728;DHT22;8984;49.268;12.302;2022-07-31T10:20:06;28.70;88.40
17728;DHT22;8984;49.268;12.302;2022-07-31T10:22:38;29.00;88.70
17728;DHT22;8984;49.268;12.302;2022-07-31T10:25:09;29.00;87.20
17728;DHT22;8984;49.268;12.302;2022-07-31T10:27:38;29.00;87.90
17728;DHT22;8984;49.268;12.302;2022-07-31T10:30:06;29.00;86.80
17728;DHT22;8984;49.268;12.302;2022-07-31T10:32:35;29.00;87.80
17728;DHT22;8984;49.268;12.302;2022-07-31T10:35:03;29.30;88.20
17728;DHT22;8984;49.268;12.302;2022-07-31T10:37:35;29.30;83.70
17728;DHT22;8984;49.268;12.302;2022-07-31T10:40:09;29.60;85.10
17728;DHT22;8984;49.268;12.302;2022-07-31T10:42:44;29.30;81.40
17728;DHT22;8984;49.268;12.302;2022-07-31T10:45:12;29.50;83.60
17728;DHT22;8984;49.268;12.302;2022-07-31T10:47:52;29.70;83.40
17728;DHT22;8984;49.268;12.302;2022-07-31T10:50:20;29.50;82.90
17728;DHT22;8984;49.268;12.302;2022-07-31T10:52:47;29.70;84.70
17728;DHT22;8984;49.268;12.302;2022-07-31T10:55:15;30.10;84.30
17728;DHT22;8984;49.268;12.302;2022-07-31T10:57:42;29.80;81.00
17728;DHT22;8984;49.268;12.302;2022-07-31T11:00:11;30.20;83.60
17728;DHT22;8984;49.268;12.302;2022-07-31T11:02:39;30.20;80.50
17728;DHT22;8984;49.268;12.302;2022-07-31T11:05:08;30.10;80.40
17728;DHT22;8984;49.268;12.302;2022-07-31T11:07:35;29.90;82.30
17728;DHT22;8984;49.268;12.302;2022-07-31T11:10:13;29.60;82.40
17728;DHT22;8984;49.268;12.302;2022-07-31T11:12:41;29.60;83.60
17728;DHT22;8984;49.268;12.302;2022-07-31T11:15:20;29.30;82.80
17728;DHT22;8984;49.268;12.302;2022-07-31T11:17:49;29.30;83.70
17728;DHT22;8984;49.268;12.302;2022-07-31T11:20:20;29.20;84.60
17728;DHT22;8984;49.268;12.302;2022-07-31T11:22:56;29.00;83.20
17728;DHT22;8984;49.268;12.302;2022-07-31T11:25:24;29.20;86.20
17728;DHT22;8984;49.268;12.302;2022-07-31T11:27:54;29.30;84.70
17728;DHT22;8984;49.268;12.302;2022-07-31T11:30:20;29.50;83.20
17728;DHT22;8984;49.268;12.302;2022-07-31T11:32:50;29.60;82.90
17728;DHT22;8984;49.268;12.302;2022-07-31T11:35:34;29.60;84.20
17728;DHT22;8984;49.268;12.302;2022-07-31T11:38:01;29.70;81.10
17728;DHT22;8984;49.268;12.302;2022-07-31T11:40:28;29.60;79.30
17728;DHT22;8984;49.268;12.302;2022-07-31T11:42:55;29.30;80.60
17728;DHT22;8984;49.268;12.302;2022-07-31T11:45:22;28.90;80.00
17728;DHT22;8984;49.268;12.302;2022-07-31T11:47:50;28.60;78.90
17728;DHT22;8984;49.268;12.302;2022-07-31T11:50:19;28.90;80.00
17728;DHT22;8984;49.268;12.302;2022-07-31T11:52:45;28.90;78.90
17728;DHT22;8984;49.268;12.302;2022-07-31T11:55:14;29.00;81.00
17728;DHT22;8984;49.268;12.302;2022-07-31T11:57:42;29.40;81.90
17728;DHT22;8984;49.268;12.302;2022-07-31T12:00:11;29.80;78.80
17728;DHT22;8984;49.268;12.302;2022-07-31T12:02:40;30.00;77.30
17728;DHT22;8984;49.268;12.302;2022-07-31T12:05:10;30.00;77.90
17728;DHT22;8984;49.268;12.302;2022-07-31T12:07:39;29.90;78.60
17728;DHT22;8984;49.268;12.302;2022-07-31T12:10:09;29.90;78.20
17728;DHT22;8984;49.268;12.302;2022-07-31T12:12:38;29.90;77.20
17728;DHT22;8984;49.268;12.302;2022-07-31T12:15:14;30.00;77.00
17728;DHT22;8984;49.268;12.302;2022-07-31T12:17:41;30.40;76.10
17728;DHT22;8984;49.268;12.302;2022-07-31T12:20:10;30.60;74.70
17728;DHT22;8984;49.268;12.302;2022-07-31T12:22:38;30.80;74.30
17728;DHT22;8984;49.268;12.302;2022-07-31T12:25:06;30.80;72.80
17728;DHT22;8984;49.268;12.302;2022-07-31T12:27:37;30.70;73.90
17728;DHT22;8984;49.268;12.302;2022-07-31T12:30:14;30.70;72.00
17728;DHT22;8984;49.268;12.302;2022-07-31T12:32:42;30.60;72.30
17728;DHT22;8984;49.268;12.302;2022-07-31T12:35:10;30.20;72.80
17728;DHT22;8984;49.268;12.302;2022-07-31T12:37:44;30.30;74.80
17728;DHT22;8984;49.268;12.302;2022-07-31T12:40:22;30.60;74.80
17728;DHT22;8984;49.268;12.302;2022-07-31T12:42:50;31.10;71.80
17728;DHT22;8984;49.268;12.302;2022-07-31T12:45:27;30.90;71.30
17728;DHT22;8984;49.268;12.302;2022-07-31T12:47:55;30.90;71.80
17728;DHT22;8984;49.268;12.302;2022-07-31T12:50:25;30.50;71.50
17728;DHT22;8984;49.268;12.302;2022-07-31T12:52:52;30.30;73.20
17728;DHT22;8984;49.268;12.302;2022-07-31T12:55:20;30.50;72.80
17728;DHT22;8984;49.268;12.302;2022-07-31T12:57:47;30.60;72.80
17728;DHT22;8984;49.268;12.302;2022-07-31T13:00:14;30.60;70.60
17728;DHT22;8984;49.268;12.302;2022-07-31T13:02:42;30.60;72.00
17728;DHT22;8984;49.268;12.302;2022-07-31T13:05:09;30.40;70.50
17728;DHT22;8984;49.268;12.302;2022-07-31T13:07:37;30.40;70.00
17728;DHT22;8984;49.268;12.302;2022-07-31T13:10:06;30.50;70.70
17728;DHT22;8984;49.268;12.302;2022-07-31T13:12:33;30.60;71.00
17728;DHT22;8984;49.268;12.302;2022-07-31T13:15:00;30.70;71.10
17728;DHT22;8984;49.268;12.302;2022-07-31T13:17:27;30.80;71.40
17728;DHT22;8984;49.268;12.302;2022-07-31T13:19:54;30.90;70.80
17728;DHT22;8984;49.268;12.302;2022-07-31T13:22:21;31.00;71.60
17728;DHT22;8984;49.268;12.302;2022-07-31T13:24:50;31.10;70.80
17728;DHT22;8984;49.268;12.302;2022-07-31T13:27:17;31.00;70.00
17728;DHT22;8984;49.268;12.302;2022-07-31T13:29:44;31.10;70.10
17728;DHT22;8984;49.268;12.302;2022-07-31T13:32:12;31.20;69.20
17728;DHT22;8984;49.268;12.302;2022-07-31T13:34:39;31.20;70.00
17728;DHT22;8984;49.268;12.302;2022-07-31T13:37:06;31.10;68.00
17728;DHT22;8984;49.268;12.302;2022-07-31T13:39:33;31.30;70.40
17728;DHT22;8984;49.268;12.302;2022-07-31T13:42:01;31.30;69.50
17728;DHT22;8984;49.268;12.302;2022-07-31T13:44:28;31.60;68.60
17728;DHT22;8984;49.268;12.302;2022-07-31T13:46:54;31.60;66.60
17728;DHT22;8984;49.268;12.302;2022-07-31T13:49:21;31.70;67.60
17728;DHT22;8984;49.268;12.302;2022-07-31T13:51:53;31.90;66.50
17728;DHT22;8984;49.268;12.302;2022-07-31T13:54:20;31.80;64.50
17728;DHT22;8984;49.268;12.302;2022-07-31T13:56:47;31.80;64.70
17728;DHT22;8984;49.268;12.302;2022-07-31T13:59:15;31.60;66.10
17728;DHT22;8984;49.268;12.302;2022-07-31T14:01:43;31.60;66.10
17728;DHT22;8984;49.268;12.302;2022-07-31T14:04:10;31.50;64.40
17728;DHT22;8984;49.268;12.302;2022-07-31T14:06:37;31.10;64.80
17728;DHT22;8984;49.268;12.302;2022-07-31T14:09:04;31.10;65.80
17728;DHT22;8984;49.268;12.302;2022-07-31T14:11:31;31.20;64.80
17728;DHT22;8984;49.268;12.302;2022-07-31T14:13:58;31.60;65.20
17728;DHT22;8984;49.268;12.302;2022-07-31T14:16:26;31.60;63.20
17728;DHT22;8984;49.268;12.302;2022-07-31T14:18:53;31.90;64.60
17728;DHT22;8984;49.268;12.302;2022-07-31T14:21:20;31.70;64.90
17728;DHT22;8984;49.268;12.302;2022-07-31T14:23:48;31.80;64.50
17728;DHT22;8984;49.268;12.302;2022-07-31T14:26:15;31.80;64.30
17728;DHT22;8984;49.268;12.302;2022-07-31T14:28:42;31.60;65.00
17728;DHT22;8984;49.268;12.302;2022-07-31T14:31:09;31.10;63.30
17728;DHT22;8984;49.268;12.302;2022-07-31T14:33:38;31.10;63.20
17728;DHT22;8984;49.268;12.302;2022-07-31T14:36:05;31.10;64.00
17728;DHT22;8984;49.268;12.302;2022-07-31T14:38:32;31.00;64.20
17728;DHT22;8984;49.268;12.302;2022-07-31T14:41:00;31.10;65.00
17728;DHT22;8984;49.268;12.302;2022-07-31T14:43:28;31.10;63.40
17728;DHT22;8984;49.268;12.302;2022-07-31T14:45:56;31.40;63.40
17728;DHT22;8984;49.268;12.302;2022-07-31T14:48:23;31.40;62.50
17728;DHT22;8984;49.268;12.302;2022-07-31T14:50:53;31.60;64.00
17728;DHT22;8984;49.268;12.302;2022-07-31T14:53:19;31.50;63.80
17728;DHT22;8984;49.268;12.302;2022-07-31T14:55:46;31.50;63.60
17728;DHT22;8984;49.268;12.302;2022-07-31T14:58:13;31.50;65.20
17728;DHT22;8984;49.268;12.302;2022-07-31T15:00:40;31.30;63.60
17728;DHT22;8984;49.268;12.302;2022-07-31T15:03:07;30.90;64.20
17728;DHT22;8984;49.268;12.302;2022-07-31T15:05:33;30.90;65.30
17728;DHT22;8984;49.268;12.302;2022-07-31T15:08:02;30.80;65.70
17728;DHT22;8984;49.268;12.302;2022-07-31T15:10:29;30.90;66.60
17728;DHT22;8984;49.268;12.302;2022-07-31T15:12:56;30.80;65.40
17728;DHT22;8984;49.268;12.302;2022-07-31T15:15:23;30.80;66.70
17728;DHT22;8984;49.268;12.302;2022-07-31T15:17:49;30.50;67.00
17728;DHT22;8984;49.268;12.302;2022-07-31T15:20:16;30.50;68.20
17728;DHT22;8984;49.268;12.302;2022-07-31T15:22:43;30.50;66.60
17728;DHT22;8984;49.268;12.302;2022-07-31T15:25:11;30.40;68.20
17728;DHT22;8984;49.268;12.302;2022-07-31T15:27:39;30.40;68.00
17728;DHT22;8984;49.268;12.302;2022-07-31T15:30:07;30.30;66.80
17728;DHT22;8984;49.268;12.302;2022-07-31T15:32:35;30.30;67.20
17728;DHT22;8984;49.268;12.302;2022-07-31T15:35:03;30.20;67.20
17728;DHT22;8984;49.268;12.302;2022-07-31T15:37:32;30.20;68.40